Time;durP1;ratioP1;P1;durP2;ratioP2;P2;SDS_P1;SDS_P2;PMS_P1;PMS_P2;Temp;Humidity;BMP_temperature;BMP_pressure;BME280_temperature;BME280_humidity;BME280_pressure;Samples;Min_cycle;Max_cycle;Signal;HPM_P1;HPM_P2
2021/05/26 00:02:11;;;;;;;;;;;10.30;99.50;;;;;;5069067;28;20336;-71
2021/05/26 00:04:37;;;;;;;;;;;10.30;99.80;;;;;;5075945;28;20440;-71
2021/05/26 00:07:02;;;;;;;;;;;10.30;99.40;;;;;;5075017;28;19923;-71
2021/05/26 00:09:28;;;;;;;;;;;10.30;99.90;;;;;;5070572;28;20510;-71
2021/05/26 00:11:53;;;;;;;;;;;10.40;99.90;;;;;;5082140;28;19908;-71
2021/05/26 00:14:18;;;;;;;;;;;10.40;99.70;;;;;;5074324;28;20067;-71
2021/05/26 00:16:44;;;;;;;;;;;10.40;99.30;;;;;;5078878;28;19908;-71
2021/05/26 00:19:10;;;;;;;;;;;10.40;99.10;;;;;;5074569;28;19916;-71
2021/05/26 00:21:36;;;;;;;;;;;10.40;99.20;;;;;;5091209;28;19987;-71
2021/05/26 00:24:01;;;;;;;;;;;10.40;99.10;;;;;;5073169;28;19999;-71
2021/05/26 00:26:27;;;;;;;;;;;10.40;99.20;;;;;;5080180;28;19959;-71
2021/05/26 00:28:54;;;;;;;;;;;10.40;99.00;;;;;;5082432;28;19912;-72
2021/05/26 00:31:22;;;;;;;;;;;10.40;99.10;;;;;;5080194;28;19919;-71
2021/05/26 00:33:47;;;;;;;;;;;10.50;98.90;;;;;;5071267;28;19979;-71
2021/05/26 00:36:13;;;;;;;;;;;10.50;99.10;;;;;;5070644;28;19923;-71
2021/05/26 00:38:38;;;;;;;;;;;10.50;99.40;;;;;;5071366;28;19951;-71
2021/05/26 00:41:04;;;;;;;;;;;10.50;99.30;;;;;;5071348;28;19974;-71
2021/05/26 00:43:29;;;;;;;;;;;10.50;99.00;;;;;;5070894;28;19909;-71
2021/05/26 00:45:55;;;;;;;;;;;10.40;98.90;;;;;;5070382;28;19916;-71
2021/05/26 00:48:20;;;;;;;;;;;10.40;98.70;;;;;;5071723;28;19960;-71
2021/05/26 00:50:46;;;;;;;;;;;10.40;98.90;;;;;;5071355;28;20033;-71
2021/05/26 00:53:12;;;;;;;;;;;10.40;98.90;;;;;;5071304;28;20362;-71
2021/05/26 00:55:38;;;;;;;;;;;10.40;99.00;;;;;;5070542;28;19951;-71
2021/05/26 00:58:04;;;;;;;;;;;10.40;98.90;;;;;;5073641;28;19959;-71
2021/05/26 01:00:31;;;;;;;;;;;10.30;98.60;;;;;;5076325;28;20378;-71
2021/05/26 01:02:56;;;;;;;;;;;10.30;98.90;;;;;;5074485;28;19962;-71
2021/05/26 01:05:24;;;;;;;;;;;10.30;99.40;;;;;;5071255;28;19912;-71
2021/05/26 01:07:50;;;;;;;;;;;10.30;99.90;;;;;;5070326;28;19912;-71
2021/05/26 01:10:17;;;;;;;;;;;10.20;99.90;;;;;;5071044;28;20008;-71
2021/05/26 01:12:44;;;;;;;;;;;10.00;99.90;;;;;;5076924;28;20460;-71
2021/05/26 01:15:10;;;;;;;;;;;9.80;99.90;;;;;;5082120;28;19919;-71
2021/05/26 01:17:36;;;;;;;;;;;9.70;99.90;;;;;;5070147;28;20361;-71
2021/05/26 01:20:03;;;;;;;;;;;9.50;99.90;;;;;;5070973;28;20003;-71
2021/05/26 01:22:29;;;;;;;;;;;9.40;99.90;;;;;;5072975;28;19955;-71
2021/05/26 01:24:54;;;;;;;;;;;9.30;99.90;;;;;;5074551;28;19955;-71
2021/05/26 01:27:20;;;;;;;;;;;9.20;99.90;;;;;;5073768;28;20441;-71
2021/05/26 01:29:46;;;;;;;;;;;9.20;99.90;;;;;;5074315;28;19909;-71
2021/05/26 01:32:11;;;;;;;;;;;9.10;99.90;;;;;;5074553;28;19908;-71
2021/05/26 01:34:37;;;;;;;;;;;9.10;99.90;;;;;;5074314;28;20082;-71
2021/05/26 01:37:02;;;;;;;;;;;9.10;99.90;;;;;;5073623;28;19908;-71
2021/05/26 01:39:28;;;;;;;;;;;9.00;99.90;;;;;;5074142;28;19913;-71
2021/05/26 01:41:55;;;;;;;;;;;9.00;99.90;;;;;;5074485;28;19913;-71
2021/05/26 01:44:23;;;;;;;;;;;8.90;99.90;;;;;;5088552;28;19958;-71
2021/05/26 01:46:53;;;;;;;;;;;8.90;99.90;;;;;;5093484;28;20007;-71
2021/05/26 01:49:19;;;;;;;;;;;8.90;99.90;;;;;;5090729;28;20007;-71
2021/05/26 01:51:44;;;;;;;;;;;8.80;99.90;;;;;;5094186;28;19954;-71
2021/05/26 01:54:10;;;;;;;;;;;8.90;99.90;;;;;;5094136;28;19908;-71
2021/05/26 01:56:36;;;;;;;;;;;8.90;99.90;;;;;;5091625;28;19948;-71
2021/05/26 01:59:02;;;;;;;;;;;8.90;99.90;;;;;;5093650;28;19915;-71
2021/05/26 02:01:27;;;;;;;;;;;8.90;99.90;;;;;;5093770;28;20301;-71
2021/05/26 02:03:53;;;;;;;;;;;9.00;99.90;;;;;;5093827;28;19954;-71
2021/05/26 02:06:19;;;;;;;;;;;9.00;99.90;;;;;;5091686;28;19913;-71
2021/05/26 02:08:46;;;;;;;;;;;9.00;99.90;;;;;;5092403;28;20006;-71
2021/05/26 02:13:59;;;;;;;;;;;9.00;99.90;;;;;;5087444;28;19915;-71
2021/05/26 02:16:25;;;;;;;;;;;9.00;99.90;;;;;;5092765;28;20277;-71
2021/05/26 02:18:50;;;;;;;;;;;9.00;99.90;;;;;;5093446;28;19915;-71
2021/05/26 02:21:16;;;;;;;;;;;8.90;99.90;;;;;;5093611;28;19908;-71
2021/05/26 02:23:41;;;;;;;;;;;8.80;99.90;;;;;;5092921;28;19955;-71
2021/05/26 02:26:07;;;;;;;;;;;8.90;99.90;;;;;;5092591;28;19919;-71
2021/05/26 02:28:32;;;;;;;;;;;8.80;99.90;;;;;;5092779;28;19916;-71
2021/05/26 02:30:58;;;;;;;;;;;8.90;99.90;;;;;;5093388;28;19912;-71
2021/05/26 02:33:23;;;;;;;;;;;8.90;99.90;;;;;;5091958;28;19908;-71
2021/05/26 02:35:49;;;;;;;;;;;8.90;99.90;;;;;;5092593;28;19915;-71
2021/05/26 02:38:14;;;;;;;;;;;8.90;99.90;;;;;;5093028;28;19909;-71
2021/05/26 02:40:40;;;;;;;;;;;8.90;99.90;;;;;;5092951;28;20390;-71
2021/05/26 02:43:06;;;;;;;;;;;8.90;99.90;;;;;;5084807;28;20328;-71
2021/05/26 02:45:32;;;;;;;;;;;8.80;99.90;;;;;;5092106;28;20270;-70
2021/05/26 02:47:57;;;;;;;;;;;8.80;99.90;;;;;;5092479;28;19915;-71
2021/05/26 02:50:23;;;;;;;;;;;8.70;99.90;;;;;;5093090;28;19961;-71
2021/05/26 02:52:52;;;;;;;;;;;8.70;99.90;;;;;;5092701;28;19908;-70
2021/05/26 02:55:18;;;;;;;;;;;8.70;99.90;;;;;;5092773;28;19908;-71
2021/05/26 02:57:44;;;;;;;;;;;8.70;99.90;;;;;;5092088;28;19908;-71
2021/05/26 03:00:10;;;;;;;;;;;8.70;99.90;;;;;;5092581;28;19915;-70
2021/05/26 03:02:36;;;;;;;;;;;8.60;99.90;;;;;;5092553;28;19915;-71
2021/05/26 03:05:02;;;;;;;;;;;8.60;99.90;;;;;;5092445;28;20288;-71
2021/05/26 03:07:28;;;;;;;;;;;8.60;99.90;;;;;;5091703;28;19919;-71
2021/05/26 03:09:53;;;;;;;;;;;8.60;99.90;;;;;;5092632;28;19912;-70
2021/05/26 03:12:19;;;;;;;;;;;8.60;99.90;;;;;;5084390;28;20428;-71
2021/05/26 03:14:44;;;;;;;;;;;8.60;99.90;;;;;;5092062;28;19908;-71
2021/05/26 03:17:10;;;;;;;;;;;8.60;99.90;;;;;;5091615;28;19962;-71
2021/05/26 03:19:35;;;;;;;;;;;8.60;99.90;;;;;;5092414;28;19915;-71
2021/05/26 03:22:01;;;;;;;;;;;8.60;99.90;;;;;;5092282;28;19908;-71
2021/05/26 03:24:26;;;;;;;;;;;8.60;99.90;;;;;;5092165;28;20113;-71
2021/05/26 03:26:52;;;;;;;;;;;8.60;99.90;;;;;;5091455;28;20387;-71
2021/05/26 03:29:17;;;;;;;;;;;8.70;99.90;;;;;;5091767;28;19956;-71
2021/05/26 03:31:43;;;;;;;;;;;8.70;99.90;;;;;;5092186;28;19908;-70
2021/05/26 03:34:09;;;;;;;;;;;8.70;99.90;;;;;;5092200;28;19908;-71
2021/05/26 03:36:37;;;;;;;;;;;8.70;99.90;;;;;;5091287;28;19917;-70
2021/05/26 03:39:04;;;;;;;;;;;8.70;99.90;;;;;;5092201;28;20307;-71
2021/05/26 03:41:29;;;;;;;;;;;8.70;99.90;;;;;;5090159;28;19994;-71
2021/05/26 03:43:54;;;;;;;;;;;8.70;99.90;;;;;;5084913;28;20109;-71
2021/05/26 03:46:20;;;;;;;;;;;8.70;99.90;;;;;;5090723;28;19916;-71
2021/05/26 03:48:45;;;;;;;;;;;8.70;99.90;;;;;;5091342;28;19915;-71
2021/05/26 03:51:11;;;;;;;;;;;8.70;99.90;;;;;;5091656;28;19920;-71
2021/05/26 03:53:36;;;;;;;;;;;8.60;99.90;;;;;;5091860;28;19908;-71
2021/05/26 03:56:02;;;;;;;;;;;8.60;99.90;;;;;;5091099;28;20281;-71
2021/05/26 03:58:27;;;;;;;;;;;8.60;99.90;;;;;;5091990;28;19957;-71
2021/05/26 04:00:53;;;;;;;;;;;8.60;99.90;;;;;;5091436;28;19915;-71
2021/05/26 04:03:18;;;;;;;;;;;8.60;99.90;;;;;;5091661;28;19908;-70
2021/05/26 04:05:44;;;;;;;;;;;8.60;99.90;;;;;;5090451;28;19911;-71
2021/05/26 04:08:09;;;;;;;;;;;8.60;99.90;;;;;;5091479;28;20463;-71
2021/05/26 04:10:35;;;;;;;;;;;8.60;99.90;;;;;;5091693;28;19908;-70
2021/05/26 04:13:00;;;;;;;;;;;8.60;99.90;;;;;;5083159;28;19920;-70
2021/05/26 04:15:26;;;;;;;;;;;8.60;99.90;;;;;;5089634;28;19908;-71
2021/05/26 04:17:51;;;;;;;;;;;8.60;99.90;;;;;;5090688;28;19916;-71
2021/05/26 04:20:17;;;;;;;;;;;8.70;99.90;;;;;;5091345;28;20377;-71
2021/05/26 04:22:42;;;;;;;;;;;8.70;99.90;;;;;;5091326;28;19915;-71
2021/05/26 04:25:08;;;;;;;;;;;8.70;99.90;;;;;;5091257;28;20049;-71
2021/05/26 04:27:34;;;;;;;;;;;8.70;99.90;;;;;;5090169;28;19908;-70
2021/05/26 04:30:01;;;;;;;;;;;8.70;99.90;;;;;;5090992;28;19944;-71
2021/05/26 04:32:26;;;;;;;;;;;8.60;99.90;;;;;;5091256;28;19947;-71
2021/05/26 04:34:52;;;;;;;;;;;8.70;99.90;;;;;;5090996;28;20467;-71
2021/05/26 04:37:17;;;;;;;;;;;8.70;99.90;;;;;;5090631;28;19939;-70
2021/05/26 04:39:46;;;;;;;;;;;8.70;99.90;;;;;;5090960;28;19912;-70
2021/05/26 04:42:11;;;;;;;;;;;8.70;99.90;;;;;;5083670;28;20263;-71
2021/05/26 04:44:37;;;;;;;;;;;8.70;99.90;;;;;;5090026;28;19916;-70
2021/05/26 04:47:03;;;;;;;;;;;8.70;99.90;;;;;;5090693;28;19958;-71
2021/05/26 04:49:28;;;;;;;;;;;8.70;99.90;;;;;;5090899;28;19943;-71
2021/05/26 04:51:54;;;;;;;;;;;8.70;99.90;;;;;;5090829;28;19908;-71
2021/05/26 04:54:19;;;;;;;;;;;8.70;99.90;;;;;;5090886;28;20010;-71
2021/05/26 04:56:45;;;;;;;;;;;8.70;99.90;;;;;;5091226;28;19955;-71
2021/05/26 04:59:11;;;;;;;;;;;8.80;99.90;;;;;;5094854;28;19912;-70
2021/05/26 05:01:37;;;;;;;;;;;8.70;99.90;;;;;;5095135;28;20369;-71
2021/05/26 05:04:03;;;;;;;;;;;8.70;99.90;;;;;;5094740;28;19939;-71
2021/05/26 05:06:28;;;;;;;;;;;8.70;99.90;;;;;;5094029;28;19916;-71
2021/05/26 05:08:54;;;;;;;;;;;8.70;99.90;;;;;;5094594;28;19954;-71
2021/05/26 05:11:19;;;;;;;;;;;8.70;99.90;;;;;;5094289;28;19909;-70
2021/05/26 05:13:46;;;;;;;;;;;8.70;99.90;;;;;;5086860;28;19961;-71
2021/05/26 05:16:11;;;;;;;;;;;8.80;99.90;;;;;;5093730;28;19950;-71
2021/05/26 05:18:37;;;;;;;;;;;8.70;99.90;;;;;;5094569;28;19971;-71
2021/05/26 05:21:02;;;;;;;;;;;8.70;99.90;;;;;;5094587;28;19916;-71
2021/05/26 05:23:28;;;;;;;;;;;8.80;99.90;;;;;;5094632;28;20032;-70
2021/05/26 05:25:53;;;;;;;;;;;8.70;99.90;;;;;;5093773;28;20355;-71
2021/05/26 05:28:19;;;;;;;;;;;8.80;99.90;;;;;;5094468;28;20258;-70
2021/05/26 05:30:45;;;;;;;;;;;8.80;99.90;;;;;;5094314;28;19908;-71
2021/05/26 05:33:10;;;;;;;;;;;8.80;99.90;;;;;;5094373;28;20296;-70
2021/05/26 05:35:35;;;;;;;;;;;8.90;99.90;;;;;;5093901;28;20280;-71
2021/05/26 05:38:01;;;;;;;;;;;9.00;99.90;;;;;;5093972;28;19916;-71
2021/05/26 05:40:26;;;;;;;;;;;9.00;99.90;;;;;;5094242;28;20335;-70
2021/05/26 05:42:52;;;;;;;;;;;9.00;99.90;;;;;;5086085;28;20361;-70
2021/05/26 05:45:17;;;;;;;;;;;9.00;99.90;;;;;;5093729;28;19981;-70
2021/05/26 05:47:43;;;;;;;;;;;9.10;99.90;;;;;;5093147;28;19915;-71
2021/05/26 05:50:15;;;;;;;;;;;9.10;99.90;;;;;;5093970;28;19927;-71
2021/05/26 05:52:42;;;;;;;;;;;9.20;99.90;;;;;;5094288;28;20330;-71
2021/05/26 05:55:08;;;;;;;;;;;9.20;99.90;;;;;;5094047;28;19908;-71
2021/05/26 05:57:34;;;;;;;;;;;9.20;99.90;;;;;;5084261;28;19955;-71
2021/05/26 05:59:59;;;;;;;;;;;9.30;99.90;;;;;;5083304;28;19955;-71
2021/05/26 06:02:25;;;;;;;;;;;9.40;99.90;;;;;;5092769;28;19956;-70
2021/05/26 06:04:50;;;;;;;;;;;9.40;99.90;;;;;;5093743;28;20445;-71
2021/05/26 06:07:16;;;;;;;;;;;9.40;99.90;;;;;;5092481;28;20377;-71
2021/05/26 06:09:41;;;;;;;;;;;9.50;99.90;;;;;;5093771;28;19908;-70
2021/05/26 06:12:07;;;;;;;;;;;9.40;99.90;;;;;;5086716;28;19912;-71
2021/05/26 06:14:32;;;;;;;;;;;9.40;99.90;;;;;;5111404;28;20125;-71
2021/05/26 06:16:57;;;;;;;;;;;9.40;99.90;;;;;;5113141;28;19980;-71
2021/05/26 06:19:23;;;;;;;;;;;9.40;99.90;;;;;;5114025;28;19962;-70
2021/05/26 06:21:48;;;;;;;;;;;9.40;99.90;;;;;;5114009;28;19908;-71
2021/05/26 06:24:14;;;;;;;;;;;9.40;99.90;;;;;;5113975;28;19990;-71
2021/05/26 06:26:39;;;;;;;;;;;9.40;99.90;;;;;;5113023;28;19907;-71
2021/05/26 06:29:05;;;;;;;;;;;9.40;99.90;;;;;;5113808;28;20282;-71
2021/05/26 06:31:31;;;;;;;;;;;9.50;99.90;;;;;;5113732;28;19912;-71
2021/05/26 06:33:57;;;;;;;;;;;9.50;99.90;;;;;;5113642;28;19982;-71
2021/05/26 06:36:23;;;;;;;;;;;9.60;99.90;;;;;;5112945;28;20390;-71
2021/05/26 06:38:48;;;;;;;;;;;9.60;99.90;;;;;;5113488;28;20270;-71
2021/05/26 06:41:14;;;;;;;;;;;9.70;99.90;;;;;;5113750;28;19961;-70
2021/05/26 06:43:40;;;;;;;;;;;9.70;99.90;;;;;;5084989;28;20360;-71
2021/05/26 06:46:05;;;;;;;;;;;9.80;99.90;;;;;;5091774;28;19997;-71
2021/05/26 06:48:31;;;;;;;;;;;9.70;99.90;;;;;;5092942;28;19920;-71
2021/05/26 06:50:56;;;;;;;;;;;9.70;99.90;;;;;;5090190;28;19908;-71
2021/05/26 06:53:22;;;;;;;;;;;9.70;99.90;;;;;;5086021;28;19909;-70
2021/05/26 06:55:48;;;;;;;;;;;9.80;99.90;;;;;;5085661;28;20273;-71
2021/05/26 06:58:13;;;;;;;;;;;9.90;99.90;;;;;;5090266;28;19908;-71
2021/05/26 07:00:39;;;;;;;;;;;9.90;99.90;;;;;;5091632;28;20361;-71
2021/05/26 07:03:04;;;;;;;;;;;10.00;99.90;;;;;;5090119;28;19916;-71
2021/05/26 07:05:30;;;;;;;;;;;10.10;99.90;;;;;;5080372;28;20011;-71
2021/05/26 07:07:55;;;;;;;;;;;10.30;99.90;;;;;;5082977;28;19908;-71
2021/05/26 07:10:21;;;;;;;;;;;10.40;99.90;;;;;;5081249;28;19951;-71
2021/05/26 07:12:48;;;;;;;;;;;10.50;99.90;;;;;;5076265;28;19915;-70
2021/05/26 07:15:14;;;;;;;;;;;10.50;99.90;;;;;;5090963;28;19908;-71
2021/05/26 07:17:39;;;;;;;;;;;10.60;99.90;;;;;;5090895;28;19912;-71
2021/05/26 07:20:05;;;;;;;;;;;10.60;99.90;;;;;;5091494;28;20353;-71
2021/05/26 07:22:31;;;;;;;;;;;10.60;99.90;;;;;;5091987;28;19908;-70
2021/05/26 07:24:56;;;;;;;;;;;10.70;99.90;;;;;;5091936;28;19912;-70
2021/05/26 07:27:22;;;;;;;;;;;10.60;99.90;;;;;;5090919;28;19912;-71
2021/05/26 07:29:48;;;;;;;;;;;10.60;99.90;;;;;;5092084;28;19912;-70
2021/05/26 07:32:14;;;;;;;;;;;10.70;99.90;;;;;;5092069;28;19912;-71
2021/05/26 07:34:39;;;;;;;;;;;10.70;99.90;;;;;;5091689;28;19908;-70
2021/05/26 07:37:04;;;;;;;;;;;10.70;99.90;;;;;;5090901;28;20369;-71
2021/05/26 07:39:35;;;;;;;;;;;10.70;99.90;;;;;;5091820;28;19915;-71
2021/05/26 07:42:01;;;;;;;;;;;10.60;99.90;;;;;;5085841;28;19913;-71
2021/05/26 07:44:26;;;;;;;;;;;10.50;99.90;;;;;;5088590;28;20424;-71
2021/05/26 07:46:54;;;;;;;;;;;10.50;99.90;;;;;;5091106;28;20007;-70
2021/05/26 07:49:20;;;;;;;;;;;10.40;99.90;;;;;;5091413;28;19912;-70
2021/05/26 07:51:50;;;;;;;;;;;10.40;99.90;;;;;;5091827;28;20284;-70
2021/05/26 07:54:15;;;;;;;;;;;10.30;99.90;;;;;;5091590;28;20286;-70
2021/05/26 07:56:41;;;;;;;;;;;10.10;99.90;;;;;;5089553;28;19987;-70
2021/05/26 07:59:06;;;;;;;;;;;10.00;99.90;;;;;;5090983;28;19915;-70
2021/05/26 08:01:32;;;;;;;;;;;10.00;99.90;;;;;;5091932;28;19954;-70
2021/05/26 08:03:57;;;;;;;;;;;10.00;99.90;;;;;;5090655;28;20300;-71
2021/05/26 08:06:23;;;;;;;;;;;10.10;99.90;;;;;;5090590;28;19916;-70
2021/05/26 08:08:48;;;;;;;;;;;10.00;99.90;;;;;;5091196;28;19916;-71
2021/05/26 08:11:14;;;;;;;;;;;10.00;99.90;;;;;;5091044;28;19934;-71
2021/05/26 08:13:39;;;;;;;;;;;10.00;99.90;;;;;;5082674;28;20006;-71
2021/05/26 08:16:06;;;;;;;;;;;9.90;99.90;;;;;;5087002;28;19934;-71
2021/05/26 08:18:32;;;;;;;;;;;9.90;99.90;;;;;;5089288;28;19908;-71
2021/05/26 08:20:58;;;;;;;;;;;9.90;99.90;;;;;;5091045;28;20002;-71
2021/05/26 08:23:25;;;;;;;;;;;9.80;99.90;;;;;;5089500;28;19930;-70
2021/05/26 08:25:51;;;;;;;;;;;9.80;99.90;;;;;;5090126;28;20020;-71
2021/05/26 08:28:16;;;;;;;;;;;9.80;99.90;;;;;;5075844;28;20362;-71
2021/05/26 08:30:42;;;;;;;;;;;9.80;99.90;;;;;;5085893;28;19959;-70
2021/05/26 08:33:08;;;;;;;;;;;9.80;99.90;;;;;;5079983;28;19919;-71
2021/05/26 08:35:33;;;;;;;;;;;9.70;99.90;;;;;;5080322;28;20376;-70
2021/05/26 08:37:59;;;;;;;;;;;9.80;99.90;;;;;;5089575;28;19957;-70
2021/05/26 08:40:25;;;;;;;;;;;9.80;99.90;;;;;;5078424;28;20373;-71
2021/05/26 08:42:51;;;;;;;;;;;9.80;99.90;;;;;;5084990;28;20459;-70
2021/05/26 08:45:16;;;;;;;;;;;9.90;99.90;;;;;;5078273;28;19913;-71
2021/05/26 08:47:43;;;;;;;;;;;9.90;99.90;;;;;;5082607;28;19977;-71
2021/05/26 08:50:09;;;;;;;;;;;9.90;99.90;;;;;;5085214;28;19919;-71
2021/05/26 08:52:34;;;;;;;;;;;9.90;99.90;;;;;;5084568;28;19908;-71
2021/05/26 08:55:01;;;;;;;;;;;10.00;99.90;;;;;;5087854;28;19918;-71
2021/05/26 08:57:26;;;;;;;;;;;10.00;99.90;;;;;;5092925;28;20361;-71
2021/05/26 08:59:52;;;;;;;;;;;10.00;99.90;;;;;;5087606;28;19908;-70
2021/05/26 09:02:17;;;;;;;;;;;10.10;99.90;;;;;;5083203;28;19911;-71
2021/05/26 09:04:43;;;;;;;;;;;10.10;99.90;;;;;;5079279;28;19955;-70
2021/05/26 09:07:18;;;;;;;;;;;10.10;99.90;;;;;;5076273;28;19914;-71
2021/05/26 09:10:13;;;;;;;;;;;10.20;99.90;;;;;;5080432;28;19954;-70
2021/05/26 09:12:44;;;;;;;;;;;10.20;99.90;;;;;;5056011;28;19935;-71
2021/05/26 09:15:11;;;;;;;;;;;10.40;99.90;;;;;;5088056;28;20262;-70
2021/05/26 09:17:37;;;;;;;;;;;10.40;99.90;;;;;;5087227;28;20250;-71
2021/05/26 09:20:22;;;;;;;;;;;10.40;99.90;;;;;;5078035;28;19965;-71
2021/05/26 09:23:06;;;;;;;;;;;10.40;99.90;;;;;;5084074;28;19924;-71
2021/05/26 09:25:33;;;;;;;;;;;10.50;99.90;;;;;;5084984;28;19920;-70
2021/05/26 09:28:19;;;;;;;;;;;10.60;99.90;;;;;;5078896;28;19912;-71
2021/05/26 09:30:45;;;;;;;;;;;10.60;99.90;;;;;;5078377;28;19909;-70
2021/05/26 09:33:27;;;;;;;;;;;10.70;99.90;;;;;;5084757;28;19915;-70
2021/05/26 09:36:09;;;;;;;;;;;10.70;99.90;;;;;;5080566;28;20016;-70
2021/05/26 09:38:35;;;;;;;;;;;10.80;99.90;;;;;;5081148;28;19909;-70
2021/05/26 09:41:07;;;;;;;;;;;10.90;99.90;;;;;;5082544;28;19923;-71
2021/05/26 09:43:40;;;;;;;;;;;11.00;99.90;;;;;;5084220;28;19994;-70
2021/05/26 09:46:16;;;;;;;;;;;11.00;99.90;;;;;;5075712;28;20009;-70
2021/05/26 09:48:41;;;;;;;;;;;11.20;99.90;;;;;;5082793;28;19908;-70
2021/05/26 09:51:06;;;;;;;;;;;11.30;99.90;;;;;;5076839;28;19919;-70
2021/05/26 09:53:32;;;;;;;;;;;11.30;99.90;;;;;;5086387;28;19908;-70
2021/05/26 09:55:58;;;;;;;;;;;11.30;99.90;;;;;;5081997;28;19916;-70
2021/05/26 09:58:25;;;;;;;;;;;11.30;99.90;;;;;;5087857;28;20023;-70
2021/05/26 10:00:51;;;;;;;;;;;11.20;99.90;;;;;;5079135;28;20403;-71
2021/05/26 10:03:16;;;;;;;;;;;11.20;99.90;;;;;;5084888;28;19909;-70
2021/05/26 10:05:42;;;;;;;;;;;11.10;99.90;;;;;;5077460;28;19912;-71
2021/05/26 10:08:12;;;;;;;;;;;11.30;99.90;;;;;;5090572;28;19965;-70
2021/05/26 10:10:40;;;;;;;;;;;11.30;99.90;;;;;;5077488;28;20011;-70
2021/05/26 10:13:10;;;;;;;;;;;11.30;99.90;;;;;;5077216;28;19908;-70
2021/05/26 10:15:36;;;;;;;;;;;11.30;99.90;;;;;;5080763;28;19965;-70
2021/05/26 10:18:01;;;;;;;;;;;11.30;99.90;;;;;;5091682;28;20322;-69
2021/05/26 10:20:31;;;;;;;;;;;11.20;99.90;;;;;;5086040;28;19916;-70
2021/05/26 10:22:58;;;;;;;;;;;11.30;99.90;;;;;;5085575;28;19908;-70
2021/05/26 10:25:24;;;;;;;;;;;11.40;99.90;;;;;;5089255;28;19916;-70
2021/05/26 10:27:50;;;;;;;;;;;11.50;99.90;;;;;;5082980;28;19908;-71
2021/05/26 10:30:17;;;;;;;;;;;11.50;99.90;;;;;;5083707;28;19908;-70
2021/05/26 10:32:55;;;;;;;;;;;11.40;99.90;;;;;;5088657;28;19909;-70
2021/05/26 10:35:22;;;;;;;;;;;11.50;99.90;;;;;;5079773;28;20272;-70
2021/05/26 10:37:55;;;;;;;;;;;11.50;99.90;;;;;;5072763;28;20429;-70
2021/05/26 10:40:30;;;;;;;;;;;11.40;99.90;;;;;;5086480;28;19942;-70
2021/05/26 10:42:55;;;;;;;;;;;11.50;99.90;;;;;;5089297;28;19912;-70
2021/05/26 10:45:33;;;;;;;;;;;11.50;99.90;;;;;;5087136;28;19918;-70
2021/05/26 10:47:59;;;;;;;;;;;11.50;99.90;;;;;;5078589;28;19924;-70
2021/05/26 10:50:45;;;;;;;;;;;11.60;99.90;;;;;;5083713;28;19908;-70
2021/05/26 10:53:10;;;;;;;;;;;11.60;99.90;;;;;;5087025;28;19965;-70
2021/05/26 10:55:39;;;;;;;;;;;11.70;99.90;;;;;;5089349;28;19948;-71
2021/05/26 10:58:17;;;;;;;;;;;11.70;99.90;;;;;;5089717;28;19946;-70
2021/05/26 11:00:44;;;;;;;;;;;11.80;99.90;;;;;;5088052;28;19908;-70
2021/05/26 11:03:28;;;;;;;;;;;11.90;99.90;;;;;;5083266;28;19916;-70
2021/05/26 11:06:04;;;;;;;;;;;11.80;99.90;;;;;;5079980;28;21259;-71
2021/05/26 11:08:48;;;;;;;;;;;11.90;99.90;;;;;;5090764;28;19908;-70
2021/05/26 11:11:33;;;;;;;;;;;12.00;99.90;;;;;;5079531;28;19982;-70
2021/05/26 11:13:59;;;;;;;;;;;12.00;99.90;;;;;;5081869;28;19916;-70
2021/05/26 11:16:35;;;;;;;;;;;11.90;99.90;;;;;;5081807;28;20010;-70
2021/05/26 11:19:09;;;;;;;;;;;11.90;99.90;;;;;;5086715;28;19908;-70
2021/05/26 11:21:34;;;;;;;;;;;12.10;99.90;;;;;;5087384;28;19912;-70
2021/05/26 11:24:00;;;;;;;;;;;12.30;99.90;;;;;;5081552;28;20314;-71
2021/05/26 11:26:36;;;;;;;;;;;12.50;99.90;;;;;;5081045;28;19912;-71
2021/05/26 11:29:05;;;;;;;;;;;12.70;99.90;;;;;;5090167;28;19912;-70
2021/05/26 11:31:30;;;;;;;;;;;12.70;99.90;;;;;;5091234;28;19966;-70
2021/05/26 11:33:57;;;;;;;;;;;12.80;99.90;;;;;;5092032;28;19916;-71
2021/05/26 11:36:41;;;;;;;;;;;12.80;99.90;;;;;;5091175;28;20316;-70
2021/05/26 11:39:16;;;;;;;;;;;12.80;99.90;;;;;;5085489;28;19916;-71
2021/05/26 11:41:42;;;;;;;;;;;12.80;99.90;;;;;;5081321;28;20300;-70
2021/05/26 11:44:08;;;;;;;;;;;12.80;99.90;;;;;;5088599;28;19908;-71
2021/05/26 11:46:33;;;;;;;;;;;12.90;99.90;;;;;;5085428;28;20396;-70
2021/05/26 11:48:59;;;;;;;;;;;12.90;99.90;;;;;;5080976;28;19915;-70
2021/05/26 11:51:25;;;;;;;;;;;12.80;99.90;;;;;;5093016;28;19952;-70
2021/05/26 11:53:56;;;;;;;;;;;12.60;99.90;;;;;;5085282;28;20403;-70
2021/05/26 11:56:22;;;;;;;;;;;12.40;99.90;;;;;;5083533;28;19909;-71
2021/05/26 11:58:48;;;;;;;;;;;12.40;99.90;;;;;;5076252;28;19912;-70
2021/05/26 12:01:15;;;;;;;;;;;12.50;99.90;;;;;;5079194;28;19977;-71
2021/05/26 12:03:40;;;;;;;;;;;12.60;99.90;;;;;;5088169;28;20345;-70
2021/05/26 12:06:06;;;;;;;;;;;12.60;99.90;;;;;;5072489;28;19974;-71
2021/05/26 12:08:37;;;;;;;;;;;12.80;99.90;;;;;;5084539;28;20384;-70
2021/05/26 12:11:03;;;;;;;;;;;12.90;99.90;;;;;;5085080;28;19942;-70
2021/05/26 12:13:30;;;;;;;;;;;13.00;99.90;;;;;;5071114;28;19916;-70
2021/05/26 12:15:59;;;;;;;;;;;13.10;99.90;;;;;;5076001;28;19908;-71
2021/05/26 12:18:24;;;;;;;;;;;13.20;99.90;;;;;;5081597;28;19908;-70
2021/05/26 12:20:51;;;;;;;;;;;13.30;99.90;;;;;;5081472;28;19908;-71
2021/05/26 12:23:29;;;;;;;;;;;13.50;99.90;;;;;;5085912;28;19909;-70
2021/05/26 12:25:54;;;;;;;;;;;13.70;99.90;;;;;;5073779;28;19920;-70
2021/05/26 12:28:21;;;;;;;;;;;13.80;99.90;;;;;;5081647;28;20354;-72
2021/05/26 12:30:48;;;;;;;;;;;13.90;99.90;;;;;;5088580;28;19943;-71
2021/05/26 12:33:21;;;;;;;;;;;14.10;99.90;;;;;;5086234;28;19908;-71
2021/05/26 12:35:59;;;;;;;;;;;14.20;99.90;;;;;;5068705;28;19961;-71
2021/05/26 12:38:25;;;;;;;;;;;14.20;99.90;;;;;;5076884;28;19919;-72
2021/05/26 12:40:51;;;;;;;;;;;14.20;99.90;;;;;;5082429;28;19916;-72
2021/05/26 12:43:26;;;;;;;;;;;14.20;99.90;;;;;;5087175;28;20045;-72
2021/05/26 12:45:51;;;;;;;;;;;14.20;99.90;;;;;;5085285;28;19970;-72
2021/05/26 12:48:17;;;;;;;;;;;14.20;99.90;;;;;;5082790;28;19916;-72
2021/05/26 12:50:43;;;;;;;;;;;14.20;99.90;;;;;;5089521;28;19908;-72
2021/05/26 12:53:09;;;;;;;;;;;14.20;99.90;;;;;;5081075;28;19944;-71
2021/05/26 12:55:35;;;;;;;;;;;14.20;99.90;;;;;;5084107;28;20396;-71
2021/05/26 12:58:02;;;;;;;;;;;14.10;99.90;;;;;;5086270;28;19947;-71
2021/05/26 13:00:28;;;;;;;;;;;14.00;99.90;;;;;;5081462;28;19930;-72
2021/05/26 13:03:26;;;;;;;;;;;14.00;99.90;;;;;;5086816;28;20423;-69
2021/05/26 13:05:51;;;;;;;;;;;14.10;99.90;;;;;;5040291;28;20300;-72
2021/05/26 13:08:17;;;;;;;;;;;14.20;99.90;;;;;;5097003;28;19908;-70
2021/05/26 13:10:49;;;;;;;;;;;14.20;99.90;;;;;;5091136;28;19997;-72
2021/05/26 13:13:16;;;;;;;;;;;14.10;99.90;;;;;;5072453;28;19999;-70
2021/05/26 13:15:42;;;;;;;;;;;14.10;99.90;;;;;;5083587;28;19908;-71
2021/05/26 13:18:08;;;;;;;;;;;14.00;99.90;;;;;;5095932;28;19952;-71
2021/05/26 13:20:34;;;;;;;;;;;13.80;99.90;;;;;;5083490;28;19912;-72
2021/05/26 13:23:00;;;;;;;;;;;13.60;99.90;;;;;;5080565;28;19915;-72
2021/05/26 13:25:27;;;;;;;;;;;13.40;99.90;;;;;;5083928;28;19912;-72
2021/05/26 13:27:53;;;;;;;;;;;13.30;99.90;;;;;;5083929;28;19912;-70
2021/05/26 13:30:23;;;;;;;;;;;13.20;99.90;;;;;;5083176;28;19908;-71
2021/05/26 13:32:49;;;;;;;;;;;13.20;99.90;;;;;;5094080;28;19908;-71
2021/05/26 13:35:15;;;;;;;;;;;13.20;99.90;;;;;;5083579;28;19909;-72
2021/05/26 13:37:41;;;;;;;;;;;13.30;99.90;;;;;;5085621;28;19908;-71
2021/05/26 13:40:07;;;;;;;;;;;13.30;99.90;;;;;;5076923;28;19916;-73
2021/05/26 13:42:36;;;;;;;;;;;13.40;99.90;;;;;;5082889;28;20273;-72
2021/05/26 13:45:02;;;;;;;;;;;13.40;99.90;;;;;;5091229;28;20370;-69
2021/05/26 13:47:28;;;;;;;;;;;13.40;99.90;;;;;;5091381;28;19915;-69
2021/05/26 13:49:53;;;;;;;;;;;13.40;99.90;;;;;;5076971;28;19995;-72
2021/05/26 13:52:19;;;;;;;;;;;13.50;99.90;;;;;;5086521;28;20458;-72
2021/05/26 13:54:44;;;;;;;;;;;13.60;99.90;;;;;;5079643;28;20353;-72
2021/05/26 13:57:10;;;;;;;;;;;13.70;99.90;;;;;;5099111;28;20002;-70
2021/05/26 13:59:35;;;;;;;;;;;13.80;99.90;;;;;;5092705;28;20003;-72
2021/05/26 14:02:01;;;;;;;;;;;14.10;99.90;;;;;;5085861;28;19981;-72
2021/05/26 14:04:26;;;;;;;;;;;14.20;99.90;;;;;;5086362;28;19908;-71
2021/05/26 14:06:51;;;;;;;;;;;14.30;99.90;;;;;;5090173;28;19912;-72
2021/05/26 14:09:19;;;;;;;;;;;14.30;99.90;;;;;;5081832;28;19981;-72
2021/05/26 14:11:44;;;;;;;;;;;14.30;99.90;;;;;;5089444;28;19908;-71
2021/05/26 14:14:10;;;;;;;;;;;14.20;99.90;;;;;;5076101;28;19953;-72
2021/05/26 14:16:35;;;;;;;;;;;14.20;99.90;;;;;;5091904;28;19907;-72
2021/05/26 14:19:01;;;;;;;;;;;14.00;99.90;;;;;;5093628;28;19947;-71
2021/05/26 14:21:26;;;;;;;;;;;13.90;99.90;;;;;;5083908;28;19978;-72
2021/05/26 14:23:54;;;;;;;;;;;13.80;99.90;;;;;;5088922;28;19908;-72
2021/05/26 14:26:19;;;;;;;;;;;13.80;99.90;;;;;;5080337;28;20369;-72